createdAt,value
2022-11-05T00:01:52.512Z,101418.38
2022-11-05T00:04:37.340Z,101425.41
2022-11-05T00:07:31.299Z,101425.16
2022-11-05T00:10:07.915Z,101421.16
2022-11-05T00:12:52.920Z,101429.25
2022-11-05T00:15:37.629Z,101446.25
2022-11-05T00:18:04.021Z,101448.81
2022-11-05T00:20:30.512Z,101443.91
2022-11-05T00:23:23.237Z,101445.28
2022-11-05T00:25:57.791Z,101442.22
2022-11-05T00:28:26.306Z,101444.31
2022-11-05T00:30:53.703Z,101445.44
2022-11-05T00:33:20.538Z,101453.72
2022-11-05T00:35:46.987Z,101450.28
2022-11-05T00:38:13.426Z,101453.94
2022-11-05T00:40:40.002Z,101454.69
2022-11-05T00:43:24.751Z,101457.38
2022-11-05T00:45:51.152Z,101460.31
2022-11-05T00:48:35.929Z,101467.53
2022-11-05T00:51:02.313Z,101465.63
2022-11-05T00:53:28.892Z,101468.44
2022-11-05T00:55:55.303Z,101474.84
2022-11-05T00:58:22.828Z,101466.81
2022-11-05T01:00:54.738Z,101465.38
2022-11-05T01:03:24.339Z,101469.13
2022-11-05T01:05:53.175Z,101464.88
2022-11-05T01:08:21.026Z,101459.72
2022-11-05T01:10:50.777Z,101457.31
2022-11-05T01:13:19.889Z,101459.47
2022-11-05T01:15:47.186Z,101478.34
2022-11-05T01:18:13.618Z,101468.56
2022-11-05T01:20:40.401Z,101472.13
2022-11-05T01:23:13.004Z,101475.81
2022-11-05T01:25:40.540Z,101475.94
2022-11-05T01:28:08.908Z,101473.16
2022-11-05T01:30:36.658Z,101475.81
2022-11-05T01:33:03.471Z,101475.09
2022-11-05T01:35:29.878Z,101476.06
2022-11-05T01:37:56.220Z,101473.31
2022-11-05T01:40:24.751Z,101470.47
2022-11-05T01:42:51.258Z,101471.13
2022-11-05T01:45:20.473Z,101473.56
2022-11-05T01:47:49.846Z,101465.25
2022-11-05T01:50:35.156Z,101465.66
2022-11-05T01:53:25.952Z,101492.69
2022-11-05T01:56:00.894Z,101489.00
2022-11-05T01:58:34.565Z,101474.94
2022-11-05T02:01:01.214Z,101476.66
2022-11-05T02:03:28.991Z,101456.28
2022-11-05T02:05:57.145Z,101471.06
2022-11-05T02:08:45.137Z,101468.47
2022-11-05T02:11:14.193Z,101476.00
2022-11-05T02:13:40.774Z,101464.38
2022-11-05T02:16:25.359Z,101488.25
2022-11-05T02:19:00.727Z,101486.22
2022-11-05T02:21:42.340Z,101495.13
2022-11-05T02:24:44.406Z,101504.22
2022-11-05T02:27:21.546Z,101501.63
2022-11-05T02:30:21.532Z,101502.63
2022-11-05T02:33:21.855Z,101498.25
2022-11-05T02:36:20.436Z,101488.75
2022-11-05T02:39:08.053Z,101473.81
2022-11-05T02:41:34.360Z,101470.38
2022-11-05T02:44:29.029Z,101467.88
2022-11-05T02:47:07.989Z,101462.63
2022-11-05T02:49:51.522Z,101452.03
2022-11-05T02:52:35.775Z,101451.28
2022-11-05T02:55:17.332Z,101451.47
2022-11-05T02:57:46.584Z,101450.75
2022-11-05T03:00:37.765Z,101443.06
2022-11-05T03:03:07.533Z,101447.81
2022-11-05T03:05:50.047Z,101437.31
2022-11-05T03:08:48.687Z,101443.94
2022-11-05T03:11:18.610Z,101446.97
2022-11-05T03:14:18.423Z,101448.94
2022-11-05T03:16:58.352Z,101455.56
2022-11-05T03:19:36.601Z,101453.44
2022-11-05T03:22:21.459Z,101451.94
2022-11-05T03:24:54.871Z,101453.41
2022-11-05T03:27:27.166Z,101452.94
2022-11-05T03:30:02.953Z,101458.63
2022-11-05T03:32:33.368Z,101449.06
2022-11-05T03:35:10.670Z,101442.13
2022-11-05T03:37:41.429Z,101443.75
2022-11-05T03:40:10.373Z,101445.28
2022-11-05T03:42:40.967Z,101440.47
2022-11-05T03:45:18.359Z,101446.28
2022-11-05T03:47:47.710Z,101457.63
2022-11-05T03:50:27.645Z,101454.69
2022-11-05T03:52:59.965Z,101448.84
2022-11-05T03:55:36.346Z,101450.34
2022-11-05T03:58:05.063Z,101451.00
2022-11-05T04:00:31.893Z,101448.25
2022-11-05T04:02:58.299Z,101447.44
2022-11-05T04:05:24.867Z,101454.56
2022-11-05T04:08:14.134Z,101453.69
2022-11-05T04:10:59.704Z,101463.41
2022-11-05T04:13:26.730Z,101465.13
2022-11-05T04:16:13.541Z,101458.75
2022-11-05T04:18:40.521Z,101461.63
2022-11-05T04:21:28.288Z,101455.25
2022-11-05T04:24:10.145Z,101463.31
2022-11-05T04:26:42.058Z,101462.44
2022-11-05T04:29:27.084Z,101468.94
2022-11-05T04:31:53.600Z,101458.44
2022-11-05T04:34:21.942Z,101464.09
2022-11-05T04:36:49.859Z,101465.19
2022-11-05T04:39:20.522Z,101462.69
2022-11-05T04:41:50.530Z,101468.28
2022-11-05T04:44:17.228Z,101467.69
2022-11-05T04:46:43.829Z,101469.69
2022-11-05T04:49:10.191Z,101473.53
2022-11-05T04:51:36.596Z,101474.50
2022-11-05T04:54:03.025Z,101474.50
2022-11-05T04:56:29.395Z,101476.25
2022-11-05T04:58:55.764Z,101476.09
2022-11-05T05:01:23.714Z,101474.59
2022-11-05T05:03:51.616Z,101482.03
2022-11-05T05:06:18.898Z,101482.41
2022-11-05T05:08:49.392Z,101474.63
2022-11-05T05:11:18.644Z,101470.25
2022-11-05T05:13:45.284Z,101466.47
2022-11-05T05:16:21.130Z,101466.38
2022-11-05T05:18:48.746Z,101463.84
2022-11-05T05:21:35.703Z,101464.97
2022-11-05T05:24:03.312Z,101460.25
2022-11-05T05:26:29.797Z,101462.09
2022-11-05T05:28:56.241Z,101460.25
2022-11-05T05:31:23.135Z,101467.00
2022-11-05T05:33:49.608Z,101468.66
2022-11-05T05:36:16.035Z,101469.13
2022-11-05T05:38:42.505Z,101471.88
2022-11-05T05:41:08.917Z,101467.59
2022-11-05T05:43:35.295Z,101464.91
2022-11-05T05:46:03.066Z,101470.97
2022-11-05T05:48:29.548Z,101473.25
2022-11-05T05:51:00.983Z,101470.75
2022-11-05T05:53:27.741Z,101470.34
2022-11-05T05:55:55.299Z,101479.13
2022-11-05T05:58:22.313Z,101474.03
2022-11-05T06:00:48.703Z,101483.72
2022-11-05T06:03:15.365Z,101476.53
2022-11-05T06:05:41.890Z,101482.38
2022-11-05T06:08:08.283Z,101480.09
2022-11-05T06:10:34.989Z,101485.69
2022-11-05T06:13:02.617Z,101488.44
2022-11-05T06:15:34.607Z,101490.72
2022-11-05T06:18:08.760Z,101492.22
2022-11-05T06:20:35.117Z,101490.31
2022-11-05T06:23:01.976Z,101483.47
2022-11-05T06:25:28.414Z,101488.56
2022-11-05T06:27:54.784Z,101487.81
2022-11-05T06:30:21.801Z,101491.88
2022-11-05T06:32:48.161Z,101492.94
2022-11-05T06:35:14.549Z,101499.88
2022-11-05T06:37:41.033Z,101505.66
2022-11-05T06:40:08.347Z,101504.53
2022-11-05T06:42:34.744Z,101505.41
2022-11-05T06:45:01.398Z,101499.94
2022-11-05T06:47:27.909Z,101502.69
2022-11-05T06:49:54.285Z,101506.03
2022-11-05T06:52:20.944Z,101504.66
2022-11-05T06:54:47.335Z,101510.69
2022-11-05T06:57:13.689Z,101520.03
2022-11-05T06:59:40.551Z,101519.63
2022-11-05T07:02:09.968Z,101519.00
2022-11-05T07:04:36.685Z,101520.88
2022-11-05T07:07:03.065Z,101518.69
2022-11-05T07:09:29.453Z,101513.94
2022-11-05T07:11:55.939Z,101516.34
2022-11-05T07:14:22.455Z,101517.78
2022-11-05T07:16:48.867Z,101516.41
2022-11-05T07:19:15.219Z,101522.06
2022-11-05T07:21:41.564Z,101504.38
2022-11-05T07:24:08.274Z,101511.00
2022-11-05T07:26:34.861Z,101519.53
2022-11-05T07:29:01.475Z,101513.88
2022-11-05T07:31:28.018Z,101501.53
2022-11-05T07:33:54.372Z,101506.59
2022-11-05T07:36:20.684Z,101507.91
2022-11-05T07:38:47.056Z,101512.25
2022-11-05T07:41:13.445Z,101509.66
2022-11-05T07:43:39.804Z,101517.59
2022-11-05T07:46:11.169Z,101514.88
2022-11-05T07:48:39.931Z,101518.16
2022-11-05T07:51:06.331Z,101526.22
2022-11-05T07:53:32.665Z,101510.88
2022-11-05T07:55:59.079Z,101517.47
2022-11-05T07:58:25.473Z,101511.34
2022-11-05T08:00:52.012Z,101518.50
2022-11-05T08:03:19.532Z,101514.13
2022-11-05T08:05:47.595Z,101514.66
2022-11-05T08:08:16.510Z,101513.69
2022-11-05T08:10:43.118Z,101520.75
2022-11-05T08:13:10.267Z,101517.84
2022-11-05T08:15:37.559Z,101521.41
2022-11-05T08:18:06.753Z,101520.69
2022-11-05T08:20:34.499Z,101522.81
2022-11-05T08:23:01.296Z,101512.81
2022-11-05T08:25:28.304Z,101516.31
2022-11-05T08:28:04.151Z,101509.44
2022-11-05T08:30:31.769Z,101515.91
2022-11-05T08:33:06.409Z,101512.19
2022-11-05T08:35:34.715Z,101516.34
2022-11-05T08:38:03.146Z,101518.69
2022-11-05T08:40:31.362Z,101521.56
2022-11-05T08:42:59.074Z,101515.56
2022-11-05T08:45:26.788Z,101514.41
2022-11-05T08:48:14.976Z,101517.56
2022-11-05T08:50:42.166Z,101518.34
2022-11-05T08:53:09.726Z,101512.59
2022-11-05T08:55:36.864Z,101519.31
2022-11-05T08:58:05.497Z,101518.34
2022-11-05T09:00:35.427Z,101521.56
2022-11-05T09:03:04.233Z,101523.13
2022-11-05T09:05:32.160Z,101510.06
2022-11-05T09:08:01.331Z,101521.97
2022-11-05T09:10:28.491Z,101528.03
2022-11-05T09:12:54.956Z,101535.28
2022-11-05T09:15:21.439Z,101535.00
2022-11-05T09:17:47.838Z,101531.88
2022-11-05T09:20:14.280Z,101532.50
2022-11-05T09:22:43.480Z,101525.63
2022-11-05T09:25:10.122Z,101520.94
2022-11-05T09:27:36.497Z,101523.75
2022-11-05T09:30:03.019Z,101526.19
2022-11-05T09:32:32.204Z,101522.69
2022-11-05T09:35:00.319Z,101530.31
2022-11-05T09:37:27.952Z,101531.75
2022-11-05T09:39:54.627Z,101526.78
2022-11-05T09:42:24.716Z,101520.50
2022-11-05T09:45:04.289Z,101524.84
2022-11-05T09:47:39.164Z,101520.94
2022-11-05T09:50:15.340Z,101522.72
2022-11-05T09:52:41.751Z,101518.13
2022-11-05T09:55:21.959Z,101513.59
2022-11-05T09:57:54.578Z,101516.13
2022-11-05T10:00:21.108Z,101521.94
2022-11-05T10:02:53.090Z,101511.59
2022-11-05T10:05:20.827Z,101514.22
2022-11-05T10:07:56.239Z,101514.22
2022-11-05T10:10:40.864Z,101516.22
2022-11-05T10:13:48.716Z,101520.69
2022-11-05T10:16:26.137Z,101516.13
2022-11-05T10:19:26.625Z,101519.84
2022-11-05T10:22:16.341Z,101517.91
2022-11-05T10:24:46.360Z,101524.28
2022-11-05T10:27:18.346Z,101524.34
2022-11-05T10:29:45.936Z,101522.53
2022-11-05T10:32:21.777Z,101526.81
2022-11-05T10:34:49.692Z,101526.81
2022-11-05T10:37:23.501Z,101526.88
2022-11-05T10:39:50.028Z,101530.53
2022-11-05T10:42:44.220Z,101528.72
2022-11-05T10:45:16.445Z,101539.38
2022-11-05T10:48:01.944Z,101535.09
2022-11-05T10:50:29.776Z,101536.75
2022-11-05T10:53:16.221Z,101532.00
2022-11-05T10:55:46.792Z,101529.00
2022-11-05T10:58:13.140Z,101530.47
2022-11-05T11:00:39.733Z,101539.25
2022-11-05T11:03:44.633Z,101542.72
2022-11-05T11:06:28.478Z,101553.38
2022-11-05T11:08:57.828Z,101545.25
2022-11-05T11:11:29.297Z,101553.88
2022-11-05T11:14:14.150Z,101541.56
2022-11-05T11:16:44.955Z,101544.59
2022-11-05T11:19:20.594Z,101543.50
2022-11-05T11:22:07.677Z,101535.75
2022-11-05T11:24:39.061Z,101541.31
2022-11-05T11:27:10.799Z,101539.94
2022-11-05T11:29:43.977Z,101540.88
2022-11-05T11:32:18.692Z,101535.59
2022-11-05T11:34:49.035Z,101534.03
2022-11-05T11:37:37.259Z,101533.63
2022-11-05T11:40:14.720Z,101534.78
2022-11-05T11:42:46.463Z,101532.06
2022-11-05T11:45:22.996Z,101532.38
2022-11-05T11:47:50.876Z,101534.44
2022-11-05T11:50:36.256Z,101529.19
2022-11-05T11:53:21.099Z,101536.53
2022-11-05T11:55:58.674Z,101537.91
2022-11-05T11:58:42.238Z,101523.28
2022-11-05T12:01:39.768Z,101529.56
2022-11-05T12:04:06.139Z,101534.72
2022-11-05T12:06:44.328Z,101523.09
2022-11-05T12:09:23.472Z,101518.94
2022-11-05T12:12:08.759Z,101523.00
2022-11-05T12:14:46.630Z,101518.91
2022-11-05T12:17:38.261Z,101523.19
2022-11-05T12:20:27.243Z,101525.50
2022-11-05T12:23:13.249Z,101523.28
2022-11-05T12:25:56.989Z,101516.19
2022-11-05T12:29:17.953Z,101509.19
2022-11-05T12:32:17.234Z,101515.94
2022-11-05T12:35:06.526Z,101505.22
2022-11-05T12:37:54.303Z,101502.59
2022-11-05T12:40:38.927Z,101497.50
2022-11-05T12:43:38.231Z,101497.03
2022-11-05T12:46:36.952Z,101488.25
2022-11-05T12:49:19.028Z,101487.56
2022-11-05T12:52:00.915Z,101488.44
2022-11-05T12:54:54.655Z,101480.41
2022-11-05T12:57:23.026Z,101478.06
2022-11-05T13:00:00.574Z,101471.69
2022-11-05T13:02:33.024Z,101480.59
2022-11-05T13:05:21.013Z,101471.94
2022-11-05T13:07:59.682Z,101472.94
2022-11-05T13:10:37.026Z,101462.66
2022-11-05T13:13:12.202Z,101467.81
2022-11-05T13:15:50.675Z,101468.28
2022-11-05T13:18:31.113Z,101456.56
2022-11-05T13:21:00.304Z,101460.44
2022-11-05T13:23:42.860Z,101465.59
2022-11-05T13:26:20.109Z,101461.75
2022-11-05T13:29:08.136Z,101457.25
2022-11-05T13:31:39.758Z,101452.13
2022-11-05T13:34:13.309Z,101458.13
2022-11-05T13:37:23.781Z,101455.78
2022-11-05T13:39:56.008Z,101454.44
2022-11-05T13:42:53.347Z,101454.63
2022-11-05T13:45:36.187Z,101447.84
2022-11-05T13:48:21.080Z,101458.09
2022-11-05T13:50:50.425Z,101444.66
2022-11-05T13:53:35.777Z,101455.16
2022-11-05T13:56:14.868Z,101454.78
2022-11-05T13:59:03.008Z,101446.25
2022-11-05T14:01:50.264Z,101436.47
2022-11-05T14:04:35.740Z,101437.63
2022-11-05T14:07:31.513Z,101432.31
2022-11-05T14:10:20.449Z,101427.47
2022-11-05T14:12:51.258Z,101431.16
2022-11-05T14:15:28.058Z,101426.91
2022-11-05T14:18:03.285Z,101437.13
2022-11-05T14:20:32.671Z,101434.63
2022-11-05T14:23:17.568Z,101433.84
2022-11-05T14:25:43.872Z,101436.34
2022-11-05T14:28:35.164Z,101424.44
2022-11-05T14:31:47.451Z,101427.44
2022-11-05T14:34:13.052Z,101424.16
2022-11-05T14:36:40.284Z,101427.28
2022-11-05T14:39:20.474Z,101423.00
2022-11-05T14:41:57.616Z,101425.72
2022-11-05T14:44:25.740Z,101421.66
2022-11-05T14:46:56.092Z,101426.91
2022-11-05T14:49:30.988Z,101427.69
2022-11-05T14:52:07.268Z,101427.75
2022-11-05T14:54:47.590Z,101424.97
2022-11-05T14:57:35.223Z,101412.22
2022-11-05T15:00:02.364Z,101414.16
2022-11-05T15:02:35.721Z,101406.97
2022-11-05T15:05:38.442Z,101408.03
2022-11-05T15:08:24.625Z,101416.44
2022-11-05T15:10:53.842Z,101420.72
2022-11-05T15:13:46.717Z,101431.09
2022-11-05T15:16:20.522Z,101427.47
2022-11-05T15:18:47.668Z,101432.25
2022-11-05T15:21:16.544Z,101432.63
2022-11-05T15:23:45.443Z,101429.00
2022-11-05T15:26:17.488Z,101440.47
2022-11-05T15:28:47.895Z,101427.44
2022-11-05T15:31:14.235Z,101425.00
2022-11-05T15:33:47.568Z,101427.94
2022-11-05T15:36:19.844Z,101428.41
2022-11-05T15:39:08.083Z,101424.97
2022-11-05T15:41:34.448Z,101425.22
2022-11-05T15:44:02.624Z,101417.28
2022-11-05T15:46:29.781Z,101408.47
2022-11-05T15:49:06.962Z,101423.94
2022-11-05T15:51:33.756Z,101423.94
2022-11-05T15:54:24.411Z,101429.34
2022-11-05T15:56:53.653Z,101422.25
2022-11-05T15:59:22.899Z,101431.25
2022-11-05T16:02:18.303Z,101421.47
2022-11-05T16:04:48.326Z,101427.88
2022-11-05T16:07:15.682Z,101407.38
2022-11-05T16:09:52.403Z,101417.41
2022-11-05T16:12:18.679Z,101407.69
2022-11-05T16:14:57.217Z,101418.75
2022-11-05T16:17:27.988Z,101415.09
2022-11-05T16:19:54.802Z,101420.63
2022-11-05T16:22:21.731Z,101422.41
2022-11-05T16:24:48.323Z,101408.38
2022-11-05T16:27:19.612Z,101416.44
2022-11-05T16:29:52.383Z,101408.56
2022-11-05T16:32:30.710Z,101410.41
2022-11-05T16:35:00.446Z,101400.59
2022-11-05T16:37:27.698Z,101390.16
2022-11-05T16:39:54.114Z,101392.78
2022-11-05T16:42:23.560Z,101397.34
2022-11-05T16:44:50.960Z,101397.22
2022-11-05T16:47:18.184Z,101404.50
2022-11-05T16:49:44.524Z,101402.63
2022-11-05T16:52:12.448Z,101400.03
2022-11-05T16:54:39.280Z,101403.56
2022-11-05T16:57:07.844Z,101399.13
2022-11-05T16:59:34.423Z,101400.03
2022-11-05T17:02:00.849Z,101401.66
2022-11-05T17:04:27.366Z,101390.88
2022-11-05T17:06:53.715Z,101395.41
2022-11-05T17:09:20.188Z,101398.03
2022-11-05T17:11:46.567Z,101396.13
2022-11-05T17:14:13.674Z,101397.78
2022-11-05T17:16:40.867Z,101396.00
2022-11-05T17:19:13.724Z,101399.63
2022-11-05T17:21:40.102Z,101399.69
2022-11-05T17:24:07.052Z,101388.03
2022-11-05T17:26:34.231Z,101387.25
2022-11-05T17:29:00.870Z,101380.09
2022-11-05T17:31:27.446Z,101380.09
2022-11-05T17:34:00.103Z,101381.06
2022-11-05T17:36:27.435Z,101381.06
2022-11-05T17:38:54.579Z,101380.94
2022-11-05T17:41:23.035Z,101389.06
2022-11-05T17:43:54.655Z,101384.56
2022-11-05T17:46:21.217Z,101383.69
2022-11-05T17:48:47.760Z,101387.00
2022-11-05T17:51:17.087Z,101386.94
2022-11-05T17:53:45.588Z,101393.28
2022-11-05T17:56:14.033Z,101386.22
2022-11-05T17:58:40.813Z,101383.38
2022-11-05T18:01:08.949Z,101371.63
2022-11-05T18:03:35.455Z,101367.94
2022-11-05T18:06:06.132Z,101356.44
2022-11-05T18:08:33.146Z,101353.69
2022-11-05T18:10:59.535Z,101362.56
2022-11-05T18:13:25.894Z,101359.69
2022-11-05T18:15:53.837Z,101361.34
2022-11-05T18:18:21.416Z,101363.25
2022-11-05T18:20:47.948Z,101363.97
2022-11-05T18:23:14.920Z,101360.34
2022-11-05T18:25:42.321Z,101352.41
2022-11-05T18:28:09.362Z,101362.06
2022-11-05T18:30:38.650Z,101357.47
2022-11-05T18:33:05.232Z,101343.19
2022-11-05T18:35:31.613Z,101338.78
2022-11-05T18:37:58.033Z,101330.63
2022-11-05T18:40:24.440Z,101325.13
2022-11-05T18:42:50.928Z,101322.59
2022-11-05T18:45:17.347Z,101329.81
2022-11-05T18:47:43.748Z,101333.22
2022-11-05T18:50:10.381Z,101324.81
2022-11-05T18:52:36.875Z,101320.38
2022-11-05T18:55:03.593Z,101322.13
2022-11-05T18:57:29.932Z,101322.13
2022-11-05T18:59:56.265Z,101320.22
2022-11-05T19:02:23.016Z,101323.88
2022-11-05T19:05:13.841Z,101315.78
2022-11-05T19:07:37.694Z,101317.50
2022-11-05T19:10:04.432Z,101304.03
2022-11-05T19:12:30.798Z,101293.09
2022-11-05T19:15:02.054Z,101301.19
2022-11-05T19:17:29.279Z,101304.69
2022-11-05T19:19:55.643Z,101303.03
2022-11-05T19:22:22.158Z,101301.25
2022-11-05T19:24:48.525Z,101295.81
2022-11-05T19:27:15.020Z,101285.09
2022-11-05T19:29:41.472Z,101279.63
2022-11-05T19:32:09.139Z,101269.81
2022-11-05T19:34:35.569Z,101269.63
2022-11-05T19:37:02.016Z,101273.31
2022-11-05T19:39:28.540Z,101266.16
2022-11-05T19:42:00.333Z,101275.22
2022-11-05T19:44:29.428Z,101264.44
2022-11-05T19:46:55.856Z,101276.16
2022-11-05T19:49:22.469Z,101276.78
2022-11-05T19:51:48.840Z,101278.50
2022-11-05T19:54:15.236Z,101273.13
2022-11-05T19:56:41.610Z,101276.78
2022-11-05T19:59:08.048Z,101272.97
2022-11-05T20:01:35.012Z,101273.91
2022-11-05T20:04:02.420Z,101258.59
2022-11-05T20:06:32.832Z,101251.41
2022-11-05T20:11:49.305Z,101245.84
2022-11-05T20:14:16.085Z,101240.63
2022-11-05T20:16:42.907Z,101253.13
2022-11-05T20:19:12.815Z,101238.59
2022-11-05T20:21:39.692Z,101246.63
2022-11-05T20:24:06.798Z,101255.81
2022-11-05T20:26:33.927Z,101243.22
2022-11-05T20:29:00.648Z,101242.34
2022-11-05T20:31:27.127Z,101240.44
2022-11-05T20:33:54.416Z,101250.19
2022-11-05T20:36:24.415Z,101239.41
2022-11-05T20:38:53.084Z,101238.38
2022-11-05T20:41:19.837Z,101238.31
2022-11-05T20:43:47.923Z,101239.97
2022-11-05T20:46:17.091Z,101240.56
2022-11-05T20:48:44.479Z,101240.56
2022-11-05T20:51:15.008Z,101244.94
2022-11-05T20:53:42.029Z,101243.88
2022-11-05T20:56:09.272Z,101232.25
2022-11-05T20:58:37.487Z,101226.94
2022-11-05T21:01:05.761Z,101224.22
2022-11-05T21:03:32.571Z,101223.38
2022-11-05T21:06:04.064Z,101228.69
2022-11-05T21:08:30.563Z,101232.16
2022-11-05T21:10:57.034Z,101234.69
2022-11-05T21:13:24.256Z,101237.09
2022-11-05T21:15:55.627Z,101230.69
2022-11-05T21:18:24.454Z,101222.41
2022-11-05T21:20:51.296Z,101221.47
2022-11-05T21:23:18.157Z,101225.91
2022-11-05T21:25:44.822Z,101223.84
2022-11-05T21:28:13.097Z,101227.06
2022-11-05T21:30:45.368Z,101234.28
2022-11-05T21:33:13.628Z,101227.06
2022-11-05T21:35:43.789Z,101225.91
2022-11-05T21:38:11.807Z,101226.88
2022-11-05T21:40:38.675Z,101219.84
2022-11-05T21:43:05.540Z,101225.91
2022-11-05T21:45:32.452Z,101220.19
2022-11-05T21:47:59.092Z,101220.19
2022-11-05T21:50:44.228Z,101210.44
2022-11-05T21:53:32.376Z,101217.41
2022-11-05T21:56:17.827Z,101216.44
2022-11-05T21:59:02.710Z,101217.41
2022-11-05T22:01:29.126Z,101211.84
2022-11-05T22:04:00.266Z,101213.75
2022-11-05T22:06:29.112Z,101216.38
2022-11-05T22:08:55.474Z,101199.47
2022-11-05T22:11:21.852Z,101195.22
2022-11-05T22:13:48.220Z,101204.19
2022-11-05T22:16:14.835Z,101210.44
2022-11-05T22:18:41.184Z,101203.13
2022-11-05T22:21:07.880Z,101196.78
2022-11-05T22:23:34.264Z,101190.69
2022-11-05T22:26:01.618Z,101197.28
2022-11-05T22:28:28.195Z,101193.97
2022-11-05T22:30:54.600Z,101193.53
2022-11-05T22:33:21.009Z,101184.66
2022-11-05T22:35:47.427Z,101178.66
2022-11-05T22:38:14.221Z,101178.66
2022-11-05T22:40:40.884Z,101189.47
2022-11-05T22:43:07.277Z,101180.72
2022-11-05T22:45:37.044Z,101175.53
2022-11-05T22:48:06.777Z,101179.09
2022-11-05T22:50:33.583Z,101170.91
2022-11-05T22:52:59.952Z,101168.03
2022-11-05T22:55:26.322Z,101174.13
2022-11-05T22:57:52.861Z,101170.56
2022-11-05T23:00:19.334Z,101166.03
2022-11-05T23:02:47.019Z,101176.56
2022-11-05T23:05:15.729Z,101173.88
2022-11-05T23:08:00.427Z,101172.84
2022-11-05T23:10:45.197Z,101167.00
2022-11-05T23:13:11.551Z,101169.69
2022-11-05T23:15:56.335Z,101166.03
2022-11-05T23:18:41.143Z,101169.53
2022-11-05T23:21:26.017Z,101166.41
2022-11-05T23:24:04.349Z,101155.69
2022-11-05T23:26:50.463Z,101160.13
2022-11-05T23:29:22.465Z,101157.44
2022-11-05T23:32:08.395Z,101164.56
2022-11-05T23:34:35.299Z,101154.75
2022-11-05T23:37:20.212Z,101156.91
2022-11-05T23:39:46.546Z,101151.69
2022-11-05T23:42:31.470Z,101143.75
2022-11-05T23:45:16.338Z,101150.03
2022-11-05T23:48:01.704Z,101138.22
2022-11-05T23:50:28.188Z,101142.53
2022-11-05T23:52:55.504Z,101158.47
2022-11-05T23:55:23.210Z,101156.66
2022-11-05T23:57:49.709Z,101150.38
